Time,TemperatureF,DewpointF,PressureIn,WindDirection,WindDirectionDegrees,WindSpeedMPH,WindSpeedGustMPH,Humidity,HourlyPrecipIn,Conditions,Clouds,dailyrainin,SoftwareType,DateUTC
2013-01-28 00:04:00,66.0,57.0,30.27,East,84,3.0,6.0,71,-99.99,,,-99.99,,2013-01-28 05:04:00,
2013-01-28 00:12:00,66.0,57.0,30.27,East,84,3.0,6.0,71,-99.99,,,-99.99,,2013-01-28 05:12:00,
2013-01-28 00:22:00,65.0,57.0,30.26,ENE,70,3.0,5.0,74,-99.99,,,-99.99,,2013-01-28 05:22:00,
2013-01-28 00:32:00,65.0,57.0,30.26,ENE,70,3.0,5.0,74,-99.99,,,-99.99,,2013-01-28 05:32:00,
2013-01-28 00:42:00,63.0,56.0,30.26,NE,52,2.0,4.0,77,-99.99,,,-99.99,,2013-01-28 05:42:00,
2013-01-28 00:52:00,63.0,56.0,30.26,NE,52,2.0,4.0,77,-99.99,,,-99.99,,2013-01-28 05:52:00,
2013-01-28 01:02:00,61.0,55.0,30.26,NE,56,2.0,5.0,81,-99.99,,,-99.99,,2013-01-28 06:02:00,
2013-01-28 01:11:00,61.0,55.0,30.26,NE,56,2.0,5.0,81,-99.99,,,-99.99,,2013-01-28 06:11:00,
2013-01-28 01:22:00,58.0,54.0,30.26,NNE,29,2.0,4.0,86,-99.99,,,-99.99,,2013-01-28 06:22:00,
2013-01-28 01:32:00,58.0,54.0,30.26,NNE,29,2.0,4.0,86,-99.99,,,-99.99,,2013-01-28 06:32:00,
2013-01-28 01:42:00,57.0,54.0,30.26,NE,37,2.0,4.0,88,-99.99,,,-99.99,,2013-01-28 06:42:00,
2013-01-28 01:52:00,57.0,54.0,30.26,NE,37,2.0,4.0,88,-99.99,,,-99.99,,2013-01-28 06:52:00,
2013-01-28 02:03:00,56.0,54.0,30.26,NE,46,3.0,5.0,91,-99.99,,,-99.99,,2013-01-28 07:03:00,
2013-01-28 02:11:00,56.0,54.0,30.26,NE,46,3.0,5.0,91,-99.99,,,-99.99,,2013-01-28 07:11:00,
2013-01-28 02:22:00,56.0,53.0,30.26,NE,44,2.0,3.0,91,-99.99,,,-99.99,,2013-01-28 07:22:00,
2013-01-28 02:32:00,56.0,53.0,30.26,NE,44,2.0,3.0,91,-99.99,,,-99.99,,2013-01-28 07:32:00,
2013-01-28 02:42:00,55.0,53.0,30.25,NE,43,1.0,3.0,92,-99.99,,,-99.99,,2013-01-28 07:42:00,
2013-01-28 02:52:00,55.0,53.0,30.25,NE,43,1.0,3.0,92,-99.99,,,-99.99,,2013-01-28 07:52:00,
2013-01-28 03:01:00,54.0,52.0,30.25,NNE,29,1.0,2.0,92,-99.99,,,-99.99,,2013-01-28 08:01:00,
2013-01-28 03:11:00,54.0,52.0,30.25,NNE,29,1.0,2.0,92,-99.99,,,-99.99,,2013-01-28 08:11:00,
2013-01-28 03:21:00,54.0,52.0,30.25,NNE,27,2.0,3.0,94,-99.99,,,-99.99,,2013-01-28 08:21:00,
2013-01-28 03:32:00,54.0,52.0,30.25,NNE,27,2.0,3.0,94,-99.99,,,-99.99,,2013-01-28 08:32:00,
2013-01-28 03:42:00,53.0,52.0,30.25,NNE,25,2.0,4.0,94,-99.99,,,-99.99,,2013-01-28 08:42:00,
2013-01-28 03:53:00,53.0,52.0,30.25,NNE,25,2.0,4.0,94,-99.99,,,-99.99,,2013-01-28 08:53:00,
2013-01-28 04:02:00,53.0,52.0,30.25,NE,36,2.0,4.0,94,-99.99,,,-99.99,,2013-01-28 09:02:00,
2013-01-28 04:12:00,53.0,52.0,30.25,NE,36,2.0,4.0,94,-99.99,,,-99.99,,2013-01-28 09:12:00,
2013-01-28 04:22:00,54.0,53.0,30.25,NE,41,2.0,4.0,95,-99.99,,,-99.99,,2013-01-28 09:22:00,
2013-01-28 04:32:00,54.0,53.0,30.25,NE,41,2.0,4.0,95,-99.99,,,-99.99,,2013-01-28 09:32:00,
2013-01-28 04:42:00,55.0,54.0,30.25,NE,49,2.0,4.0,95,-99.99,,,-99.99,,2013-01-28 09:42:00,
2013-01-28 04:52:00,55.0,54.0,30.25,NE,49,2.0,4.0,95,-99.99,,,-99.99,,2013-01-28 09:52:00,
2013-01-28 05:02:00,55.0,54.0,30.25,NE,43,2.0,4.0,95,-99.99,,,-99.99,,2013-01-28 10:02:00,
2013-01-28 05:11:00,55.0,54.0,30.25,NE,43,2.0,4.0,95,-99.99,,,-99.99,,2013-01-28 10:11:00,
2013-01-28 05:21:00,55.0,53.0,30.24,NE,38,3.0,5.0,95,-99.99,,,-99.99,,2013-01-28 10:21:00,
2013-01-28 05:32:00,55.0,53.0,30.24,NE,38,3.0,5.0,95,-99.99,,,-99.99,,2013-01-28 10:32:00,
2013-01-28 05:42:00,57.0,56.0,30.24,NE,42,3.0,5.0,96,-99.99,,,-99.99,,2013-01-28 10:42:00,
2013-01-28 05:52:00,57.0,56.0,30.24,NE,42,3.0,5.0,96,-99.99,,,-99.99,,2013-01-28 10:52:00,
2013-01-28 06:02:00,57.0,56.0,30.24,NE,37,3.0,5.0,96,-99.99,,,-99.99,,2013-01-28 11:02:00,
2013-01-28 06:11:00,57.0,56.0,30.24,NE,37,3.0,5.0,96,-99.99,,,-99.99,,2013-01-28 11:11:00,
2013-01-28 06:22:00,59.0,58.0,30.25,NE,45,3.0,6.0,96,-99.99,,,-99.99,,2013-01-28 11:22:00,
2013-01-28 06:32:00,59.0,58.0,30.25,NE,45,3.0,6.0,96,-99.99,,,-99.99,,2013-01-28 11:32:00,
2013-01-28 06:42:00,58.0,57.0,30.25,NE,49,2.0,5.0,95,-99.99,,,-99.99,,2013-01-28 11:42:00,
2013-01-28 06:52:00,58.0,57.0,30.25,NE,49,2.0,5.0,95,-99.99,,,-99.99,,2013-01-28 11:52:00,
2013-01-28 07:03:00,59.0,58.0,30.26,ENE,68,3.0,6.0,96,-99.99,,,-99.99,,2013-01-28 12:03:00,
2013-01-28 07:12:00,59.0,58.0,30.26,ENE,68,3.0,6.0,96,-99.99,,,-99.99,,2013-01-28 12:12:00,
2013-01-28 07:23:00,60.0,59.0,30.27,ENE,66,3.0,5.0,95,-99.99,,,-99.99,,2013-01-28 12:23:00,
2013-01-28 07:33:00,60.0,59.0,30.27,ENE,66,3.0,5.0,95,-99.99,,,-99.99,,2013-01-28 12:33:00,
2013-01-28 07:42:00,60.0,59.0,30.27,ENE,67,2.0,4.0,94,-99.99,,,-99.99,,2013-01-28 12:42:00,
2013-01-28 07:53:00,60.0,59.0,30.27,ENE,67,2.0,4.0,94,-99.99,,,-99.99,,2013-01-28 12:53:00,
2013-01-28 08:03:00,58.0,56.0,30.28,ENE,60,2.0,5.0,93,-99.99,,,-99.99,,2013-01-28 13:03:00,
2013-01-28 08:12:00,58.0,56.0,30.28,ENE,60,2.0,5.0,93,-99.99,,,-99.99,,2013-01-28 13:12:00,
2013-01-28 08:23:00,58.0,57.0,30.28,NE,43,3.0,4.0,96,-99.99,,,-99.99,,2013-01-28 13:23:00,
2013-01-28 08:33:00,58.0,57.0,30.28,NE,43,3.0,4.0,96,-99.99,,,-99.99,,2013-01-28 13:33:00,
2013-01-28 08:42:00,60.0,59.0,30.29,NE,48,3.0,5.0,96,-99.99,,,-99.99,,2013-01-28 13:42:00,
2013-01-28 08:53:00,60.0,59.0,30.29,NE,48,3.0,5.0,96,-99.99,,,-99.99,,2013-01-28 13:53:00,
2013-01-28 09:03:00,62.0,60.0,30.29,ENE,58,3.0,5.0,92,-99.99,,,-99.99,,2013-01-28 14:03:00,
2013-01-28 09:12:00,62.0,60.0,30.29,ENE,58,3.0,5.0,92,-99.99,,,-99.99,,2013-01-28 14:12:00,
2013-01-28 09:23:00,68.0,61.0,30.29,East,82,4.0,8.0,80,-99.99,,,-99.99,,2013-01-28 14:23:00,
2013-01-28 09:33:00,68.0,61.0,30.29,East,82,4.0,8.0,80,-99.99,,,-99.99,,2013-01-28 14:33:00,
2013-01-28 09:43:00,70.0,62.0,30.29,East,92,4.0,9.0,76,-99.99,,,-99.99,,2013-01-28 14:43:00,
2013-01-28 09:53:00,70.0,62.0,30.29,East,92,4.0,9.0,76,-99.99,,,-99.99,,2013-01-28 14:53:00,
2013-01-28 10:03:00,72.0,63.0,30.30,East,87,5.0,10.0,73,-99.99,,,-99.99,,2013-01-28 15:03:00,
2013-01-28 10:13:00,72.0,63.0,30.30,East,87,5.0,10.0,73,-99.99,,,-99.99,,2013-01-28 15:13:00,
2013-01-28 10:24:00,74.0,63.0,30.30,ESE,104,8.0,14.0,68,-99.99,,,-99.99,,2013-01-28 15:24:00,
2013-01-28 10:33:00,74.0,63.0,30.30,ESE,104,8.0,14.0,68,-99.99,,,-99.99,,2013-01-28 15:33:00,
2013-01-28 10:43:00,74.0,63.0,30.31,ESE,114,7.0,16.0,68,-99.99,,,-99.99,,2013-01-28 15:43:00,
2013-01-28 10:53:00,74.0,63.0,30.31,ESE,114,7.0,16.0,68,-99.99,,,-99.99,,2013-01-28 15:53:00,
2013-01-28 11:04:00,75.0,63.0,30.31,ESE,104,7.0,15.0,66,-99.99,,,-99.99,,2013-01-28 16:04:00,
2013-01-28 11:13:00,75.0,63.0,30.31,ESE,104,7.0,15.0,66,-99.99,,,-99.99,,2013-01-28 16:13:00,
2013-01-28 11:22:00,78.0,63.0,30.31,ESE,116,9.0,15.0,61,-99.99,,,-99.99,,2013-01-28 16:22:00,
2013-01-28 11:33:00,78.0,63.0,30.31,ESE,116,9.0,15.0,61,-99.99,,,-99.99,,2013-01-28 16:33:00,
2013-01-28 11:43:00,78.0,63.0,30.30,ESE,107,9.0,17.0,60,-99.99,,,-99.99,,2013-01-28 16:43:00,
2013-01-28 11:53:00,78.0,63.0,30.30,ESE,107,9.0,17.0,60,-99.99,,,-99.99,,2013-01-28 16:53:00,
2013-01-28 12:02:00,79.0,63.0,30.30,ESE,110,7.0,16.0,58,-99.99,,,-99.99,,2013-01-28 17:02:00,
2013-01-28 12:12:00,79.0,63.0,30.30,ESE,110,7.0,16.0,58,-99.99,,,-99.99,,2013-01-28 17:12:00,
2013-01-28 12:23:00,78.0,63.0,30.29,ESE,104,8.0,16.0,59,-99.99,,,-99.99,,2013-01-28 17:23:00,
2013-01-28 12:33:00,78.0,63.0,30.29,ESE,104,8.0,16.0,59,-99.99,,,-99.99,,2013-01-28 17:33:00,
2013-01-28 12:42:00,79.0,63.0,30.29,ESE,120,8.0,19.0,57,-99.99,,,-99.99,,2013-01-28 17:42:00,
2013-01-28 12:53:00,79.0,63.0,30.29,ESE,120,8.0,19.0,57,-99.99,,,-99.99,,2013-01-28 17:53:00,
2013-01-28 13:00:00,82.0,63.0,30.26,ESE,119,9.0,17.0,52,-99.99,,,-99.99,,2013-01-28 18:00:00,
2013-01-28 13:03:00,79.0,63.0,30.28,SE,125,8.0,15.0,57,-99.99,,,-99.99,,2013-01-28 18:03:00,
2013-01-28 13:13:00,79.0,63.0,30.28,SE,125,8.0,15.0,57,-99.99,,,-99.99,,2013-01-28 18:13:00,
2013-01-28 13:23:00,81.0,63.0,30.27,SE,141,9.0,16.0,53,-99.99,,,-99.99,,2013-01-28 18:23:00,
2013-01-28 13:33:00,81.0,63.0,30.27,SE,141,9.0,16.0,53,-99.99,,,-99.99,,2013-01-28 18:33:00,
2013-01-28 13:42:00,82.0,63.0,30.26,ESE,119,9.0,17.0,52,-99.99,,,-99.99,,2013-01-28 18:42:00,
2013-01-28 13:53:00,82.0,63.0,30.26,ESE,119,9.0,17.0,52,-99.99,,,-99.99,,2013-01-28 18:53:00,
2013-01-28 14:22:00,81.0,63.0,30.23,ESE,107,7.0,15.0,52,-99.99,,,-99.99,,2013-01-28 19:22:00,
2013-01-28 14:33:00,81.0,63.0,30.23,ESE,107,7.0,15.0,52,-99.99,,,-99.99,,2013-01-28 19:33:00,
2013-01-28 14:42:00,81.0,63.0,30.23,ESE,107,7.0,15.0,52,-99.99,,,-99.99,,2013-01-28 19:42:00,
2013-01-28 14:53:00,81.0,63.0,30.23,ESE,107,7.0,15.0,52,-99.99,,,-99.99,,2013-01-28 19:53:00,
2013-01-28 15:03:00,82.0,62.0,30.22,ESE,110,6.0,15.0,50,-99.99,,,-99.99,,2013-01-28 20:03:00,
2013-01-28 15:12:00,82.0,62.0,30.22,ESE,110,6.0,15.0,50,-99.99,,,-99.99,,2013-01-28 20:12:00,
2013-01-28 15:22:00,83.0,61.0,30.21,East,95,6.0,12.0,47,-99.99,,,-99.99,,2013-01-28 20:22:00,
2013-01-28 15:33:00,83.0,61.0,30.21,East,95,6.0,12.0,47,-99.99,,,-99.99,,2013-01-28 20:33:00,
2013-01-28 15:43:00,83.0,61.0,30.21,East,96,8.0,15.0,48,-99.99,,,-99.99,,2013-01-28 20:43:00,
2013-01-28 15:53:00,83.0,61.0,30.21,East,96,8.0,15.0,48,-99.99,,,-99.99,,2013-01-28 20:53:00,
2013-01-28 16:03:00,80.0,61.0,30.21,East,101,6.0,11.0,52,-99.99,,,-99.99,,2013-01-28 21:03:00,
2013-01-28 16:12:00,80.0,61.0,30.21,East,101,6.0,11.0,52,-99.99,,,-99.99,,2013-01-28 21:12:00,
2013-01-28 16:23:00,81.0,61.0,30.20,SE,133,6.0,11.0,51,-99.99,,,-99.99,,2013-01-28 21:23:00,
2013-01-28 16:33:00,81.0,61.0,30.20,SE,133,6.0,11.0,51,-99.99,,,-99.99,,2013-01-28 21:33:00,
2013-01-28 16:43:00,81.0,61.0,30.20,SE,128,7.0,14.0,49,-99.99,,,-99.99,,2013-01-28 21:43:00,
2013-01-28 16:53:00,81.0,61.0,30.20,SE,128,7.0,14.0,49,-99.99,,,-99.99,,2013-01-28 21:53:00,
2013-01-28 17:02:00,80.0,61.0,30.20,SE,135,7.0,11.0,51,-99.99,,,-99.99,,2013-01-28 22:02:00,
2013-01-28 17:12:00,80.0,61.0,30.20,SE,135,7.0,11.0,51,-99.99,,,-99.99,,2013-01-28 22:12:00,
2013-01-28 17:23:00,81.0,60.0,30.20,ESE,112,5.0,12.0,49,-99.99,,,-99.99,,2013-01-28 22:23:00,
2013-01-28 17:33:00,81.0,60.0,30.20,ESE,112,5.0,12.0,49,-99.99,,,-99.99,,2013-01-28 22:33:00,
2013-01-28 17:42:00,80.0,58.0,30.20,ESE,106,6.0,12.0,46,-99.99,,,-99.99,,2013-01-28 22:42:00,
2013-01-28 17:52:00,80.0,58.0,30.20,ESE,106,6.0,12.0,46,-99.99,,,-99.99,,2013-01-28 22:52:00,
2013-01-28 18:03:00,80.0,57.0,30.20,ESE,110,6.0,10.0,45,-99.99,,,-99.99,,2013-01-28 23:03:00,
2013-01-28 18:12:00,80.0,57.0,30.20,ESE,110,6.0,10.0,45,-99.99,,,-99.99,,2013-01-28 23:12:00,
2013-01-28 18:22:00,78.0,57.0,30.21,ESE,118,6.0,12.0,49,-99.99,,,-99.99,,2013-01-28 23:22:00,
2013-01-28 18:32:00,78.0,57.0,30.21,ESE,118,6.0,12.0,49,-99.99,,,-99.99,,2013-01-28 23:32:00,
2013-01-28 18:42:00,76.0,57.0,30.21,SE,125,5.0,10.0,52,-99.99,,,-99.99,,2013-01-28 23:42:00,
2013-01-28 18:53:00,76.0,57.0,30.21,SE,125,5.0,10.0,52,-99.99,,,-99.99,,2013-01-28 23:53:00,
2013-01-28 19:02:00,74.0,58.0,30.22,ESE,111,4.0,6.0,55,-99.99,,,-99.99,,2013-01-29 00:02:00,
2013-01-28 19:12:00,74.0,58.0,30.22,ESE,111,4.0,6.0,55,-99.99,,,-99.99,,2013-01-29 00:12:00,
2013-01-28 19:22:00,71.0,57.0,30.23,ESE,103,3.0,5.0,60,-99.99,,,-99.99,,2013-01-29 00:22:00,
2013-01-28 19:33:00,71.0,57.0,30.23,ESE,103,3.0,5.0,60,-99.99,,,-99.99,,2013-01-29 00:33:00,
2013-01-28 19:42:00,70.0,57.0,30.23,ESE,102,3.0,6.0,62,-99.99,,,-99.99,,2013-01-29 00:42:00,
2013-01-28 19:52:00,70.0,57.0,30.23,ESE,102,3.0,6.0,62,-99.99,,,-99.99,,2013-01-29 00:52:00,
2013-01-28 20:02:00,70.0,57.0,30.23,East,97,3.0,5.0,63,-99.99,,,-99.99,,2013-01-29 01:02:00,
2013-01-28 20:12:00,70.0,57.0,30.23,East,97,3.0,5.0,63,-99.99,,,-99.99,,2013-01-29 01:12:00,
2013-01-28 20:23:00,69.0,58.0,30.24,East,100,3.0,6.0,68,-99.99,,,-99.99,,2013-01-29 01:23:00,
2013-01-28 20:32:00,69.0,58.0,30.24,East,100,3.0,6.0,68,-99.99,,,-99.99,,2013-01-29 01:32:00,
2013-01-28 20:42:00,69.0,59.0,30.24,East,96,3.0,5.0,70,-99.99,,,-99.99,,2013-01-29 01:42:00,
2013-01-28 20:53:00,69.0,59.0,30.24,East,96,3.0,5.0,70,-99.99,,,-99.99,,2013-01-29 01:53:00,
2013-01-28 21:02:00,68.0,59.0,30.24,East,91,3.0,5.0,72,-99.99,,,-99.99,,2013-01-29 02:02:00,
2013-01-28 21:12:00,68.0,59.0,30.24,East,91,3.0,5.0,72,-99.99,,,-99.99,,2013-01-29 02:12:00,
2013-01-28 21:22:00,64.0,57.0,30.25,ENE,72,2.0,4.0,78,-99.99,,,-99.99,,2013-01-29 02:22:00,
2013-01-28 21:33:00,64.0,57.0,30.25,ENE,72,2.0,4.0,78,-99.99,,,-99.99,,2013-01-29 02:33:00,
2013-01-28 21:42:00,63.0,58.0,30.25,NE,54,3.0,4.0,81,-99.99,,,-99.99,,2013-01-29 02:42:00,
2013-01-28 21:53:00,63.0,58.0,30.25,NE,54,3.0,4.0,81,-99.99,,,-99.99,,2013-01-29 02:53:00,
2013-01-28 22:03:00,63.0,58.0,30.26,NE,56,2.0,3.0,82,-99.99,,,-99.99,,2013-01-29 03:03:00,
2013-01-28 22:12:00,63.0,58.0,30.26,NE,56,2.0,3.0,82,-99.99,,,-99.99,,2013-01-29 03:12:00,
2013-01-28 22:22:00,64.0,58.0,30.26,ENE,69,2.0,4.0,82,-99.99,,,-99.99,,2013-01-29 03:22:00,
2013-01-28 22:32:00,64.0,58.0,30.26,ENE,69,2.0,4.0,82,-99.99,,,-99.99,,2013-01-29 03:32:00,
2013-01-28 22:42:00,64.0,59.0,30.25,ENE,71,2.0,4.0,81,-99.99,,,-99.99,,2013-01-29 03:42:00,
2013-01-28 22:53:00,64.0,58.0,30.26,ENE,76,2.0,4.0,82,-99.99,,,-99.99,,2013-01-29 03:53:00,
2013-01-28 23:12:00,64.0,58.0,30.26,ENE,76,2.0,4.0,82,-99.99,,,-99.99,,2013-01-29 04:12:00,
2013-01-28 23:22:00,62.0,58.0,30.25,East,84,2.0,4.0,85,-99.99,,,-99.99,,2013-01-29 04:22:00,
2013-01-28 23:32:00,62.0,58.0,30.25,East,84,2.0,4.0,85,-99.99,,,-99.99,,2013-01-29 04:32:00,
2013-01-28 23:42:00,61.0,57.0,30.25,East,85,3.0,4.0,86,-99.99,,,-99.99,,2013-01-29 04:42:00,
2013-01-28 23:52:00,61.0,57.0,30.25,East,85,3.0,4.0,86,-99.99,,,-99.99,,2013-01-29 04:52:00,